sensor_id;sensor_type;location;lat;lon;timestamp;P1;durP1;ratioP1;P2;durP2;ratioP2
48516;SDS011;34310;51.904;4.256;2023-07-29T00:02:13;2.38;;;1.48;;
48516;SDS011;34310;51.904;4.256;2023-07-29T00:04:39;2.55;;;1.50;;
48516;SDS011;34310;51.904;4.256;2023-07-29T00:07:06;1.92;;;1.60;;
48516;SDS011;34310;51.904;4.256;2023-07-29T00:09:32;1.70;;;1.40;;
48516;SDS011;34310;51.904;4.256;2023-07-29T00:11:59;2.17;;;1.50;;
48516;SDS011;34310;51.904;4.256;2023-07-29T00:14:25;1.92;;;1.45;;
48516;SDS011;34310;51.904;4.256;2023-07-29T00:16:52;1.55;;;1.40;;
48516;SDS011;34310;51.904;4.256;2023-07-29T00:19:18;2.60;;;1.38;;
48516;SDS011;34310;51.904;4.256;2023-07-29T00:21:45;2.85;;;1.70;;
48516;SDS011;34310;51.904;4.256;2023-07-29T00:24:12;1.50;;;1.30;;
48516;SDS011;34310;51.904;4.256;2023-07-29T00:26:38;2.47;;;1.60;;
48516;SDS011;34310;51.904;4.256;2023-07-29T00:29:05;2.00;;;1.45;;
48516;SDS011;34310;51.904;4.256;2023-07-29T00:31:31;3.00;;;1.50;;
48516;SDS011;34310;51.904;4.256;2023-07-29T00:33:57;2.63;;;1.48;;
48516;SDS011;34310;51.904;4.256;2023-07-29T00:36:24;2.00;;;1.63;;
48516;SDS011;34310;51.904;4.256;2023-07-29T00:38:51;2.45;;;1.42;;
48516;SDS011;34310;51.904;4.256;2023-07-29T00:41:17;1.98;;;1.65;;
48516;SDS011;34310;51.904;4.256;2023-07-29T00:43:44;2.22;;;1.52;;
48516;SDS011;34310;51.904;4.256;2023-07-29T00:46:10;2.08;;;1.60;;
48516;SDS011;34310;51.904;4.256;2023-07-29T00:48:37;2.15;;;1.65;;
48516;SDS011;34310;51.904;4.256;2023-07-29T00:51:03;2.55;;;1.40;;
48516;SDS011;34310;51.904;4.256;2023-07-29T00:53:30;2.50;;;1.48;;
48516;SDS011;34310;51.904;4.256;2023-07-29T00:55:57;2.60;;;1.58;;
48516;SDS011;34310;51.904;4.256;2023-07-29T00:58:23;1.90;;;1.60;;
48516;SDS011;34310;51.904;4.256;2023-07-29T01:00:50;1.52;;;1.42;;
48516;SDS011;34310;51.904;4.256;2023-07-29T01:03:17;1.60;;;1.50;;
48516;SDS011;34310;51.904;4.256;2023-07-29T01:05:57;1.92;;;1.77;;
48516;SDS011;34310;51.904;4.256;2023-07-29T01:11:14;2.70;;;1.70;;
48516;SDS011;34310;51.904;4.256;2023-07-29T01:14:05;2.65;;;1.80;;
48516;SDS011;34310;51.904;4.256;2023-07-29T01:16:41;2.30;;;1.70;;
48516;SDS011;34310;51.904;4.256;2023-07-29T01:19:21;3.03;;;1.60;;
48516;SDS011;34310;51.904;4.256;2023-07-29T01:22:02;1.52;;;1.42;;
48516;SDS011;34310;51.904;4.256;2023-07-29T01:24:30;2.13;;;1.70;;
48516;SDS011;34310;51.904;4.256;2023-07-29T01:26:56;2.50;;;1.50;;
48516;SDS011;34310;51.904;4.256;2023-07-29T01:29:23;2.03;;;1.40;;
48516;SDS011;34310;51.904;4.256;2023-07-29T01:31:49;1.77;;;1.27;;
48516;SDS011;34310;51.904;4.256;2023-07-29T01:34:22;1.95;;;1.50;;
48516;SDS011;34310;51.904;4.256;2023-07-29T01:36:56;1.55;;;1.30;;
48516;SDS011;34310;51.904;4.256;2023-07-29T01:39:29;1.58;;;1.48;;
48516;SDS011;34310;51.904;4.256;2023-07-29T01:41:58;2.20;;;1.50;;
48516;SDS011;34310;51.904;4.256;2023-07-29T01:44:25;2.03;;;1.50;;
48516;SDS011;34310;51.904;4.256;2023-07-29T01:46:54;1.63;;;1.40;;
48516;SDS011;34310;51.904;4.256;2023-07-29T01:49:23;2.53;;;1.58;;
48516;SDS011;34310;51.904;4.256;2023-07-29T01:51:49;1.50;;;1.40;;
48516;SDS011;34310;51.904;4.256;2023-07-29T01:54:16;2.85;;;1.48;;
48516;SDS011;34310;51.904;4.256;2023-07-29T01:56:42;1.45;;;1.35;;
48516;SDS011;34310;51.904;4.256;2023-07-29T01:59:09;2.42;;;1.30;;
48516;SDS011;34310;51.904;4.256;2023-07-29T02:01:35;1.80;;;1.40;;
48516;SDS011;34310;51.904;4.256;2023-07-29T02:04:02;1.67;;;1.50;;
48516;SDS011;34310;51.904;4.256;2023-07-29T02:06:28;1.40;;;1.30;;
48516;SDS011;34310;51.904;4.256;2023-07-29T02:08:55;1.60;;;1.42;;
48516;SDS011;34310;51.904;4.256;2023-07-29T02:11:21;2.17;;;1.55;;
48516;SDS011;34310;51.904;4.256;2023-07-29T02:13:48;2.15;;;1.52;;
48516;SDS011;34310;51.904;4.256;2023-07-29T02:16:14;1.92;;;1.38;;
48516;SDS011;34310;51.904;4.256;2023-07-29T02:18:41;1.70;;;1.60;;
48516;SDS011;34310;51.904;4.256;2023-07-29T02:21:07;1.67;;;1.30;;
48516;SDS011;34310;51.904;4.256;2023-07-29T02:23:34;1.92;;;1.50;;
48516;SDS011;34310;51.904;4.256;2023-07-29T02:26:00;1.98;;;1.42;;
48516;SDS011;34310;51.904;4.256;2023-07-29T02:28:27;1.70;;;1.27;;
48516;SDS011;34310;51.904;4.256;2023-07-29T02:31:15;2.60;;;1.50;;
48516;SDS011;34310;51.904;4.256;2023-07-29T02:33:46;1.50;;;1.40;;
48516;SDS011;34310;51.904;4.256;2023-07-29T02:36:13;1.88;;;1.40;;
48516;SDS011;34310;51.904;4.256;2023-07-29T02:38:40;1.45;;;1.20;;
48516;SDS011;34310;51.904;4.256;2023-07-29T02:41:10;2.05;;;1.40;;
48516;SDS011;34310;51.904;4.256;2023-07-29T02:43:37;1.33;;;1.23;;
48516;SDS011;34310;51.904;4.256;2023-07-29T02:46:04;1.55;;;1.30;;
48516;SDS011;34310;51.904;4.256;2023-07-29T02:48:31;2.17;;;1.33;;
48516;SDS011;34310;51.904;4.256;2023-07-29T02:50:57;1.42;;;1.30;;
48516;SDS011;34310;51.904;4.256;2023-07-29T02:53:24;1.30;;;1.20;;
48516;SDS011;34310;51.904;4.256;2023-07-29T02:55:50;1.77;;;1.20;;
48516;SDS011;34310;51.904;4.256;2023-07-29T02:58:17;2.90;;;1.50;;
48516;SDS011;34310;51.904;4.256;2023-07-29T03:00:43;1.20;;;1.10;;
48516;SDS011;34310;51.904;4.256;2023-07-29T03:03:10;1.30;;;1.20;;
48516;SDS011;34310;51.904;4.256;2023-07-29T03:05:37;1.88;;;1.33;;
48516;SDS011;34310;51.904;4.256;2023-07-29T03:08:03;1.30;;;1.20;;
48516;SDS011;34310;51.904;4.256;2023-07-29T03:10:30;1.40;;;1.15;;
48516;SDS011;34310;51.904;4.256;2023-07-29T03:12:56;1.60;;;1.40;;
48516;SDS011;34310;51.904;4.256;2023-07-29T03:15:23;1.75;;;1.50;;
48516;SDS011;34310;51.904;4.256;2023-07-29T03:17:50;1.67;;;1.33;;
48516;SDS011;34310;51.904;4.256;2023-07-29T03:20:18;2.28;;;1.38;;
48516;SDS011;34310;51.904;4.256;2023-07-29T03:22:46;1.40;;;1.20;;
48516;SDS011;34310;51.904;4.256;2023-07-29T03:25:13;1.40;;;1.13;;
48516;SDS011;34310;51.904;4.256;2023-07-29T03:27:40;1.40;;;1.30;;
48516;SDS011;34310;51.904;4.256;2023-07-29T03:30:06;1.92;;;1.42;;
48516;SDS011;34310;51.904;4.256;2023-07-29T03:32:33;2.10;;;1.23;;
48516;SDS011;34310;51.904;4.256;2023-07-29T03:35:00;1.67;;;1.58;;
48516;SDS011;34310;51.904;4.256;2023-07-29T03:37:26;2.13;;;1.20;;
48516;SDS011;34310;51.904;4.256;2023-07-29T03:39:53;1.92;;;1.50;;
48516;SDS011;34310;51.904;4.256;2023-07-29T03:42:19;1.90;;;1.27;;
48516;SDS011;34310;51.904;4.256;2023-07-29T03:44:46;2.22;;;1.50;;
48516;SDS011;34310;51.904;4.256;2023-07-29T03:47:12;2.25;;;1.63;;
48516;SDS011;34310;51.904;4.256;2023-07-29T03:49:38;1.48;;;1.38;;
48516;SDS011;34310;51.904;4.256;2023-07-29T03:52:05;1.50;;;1.20;;
48516;SDS011;34310;51.904;4.256;2023-07-29T03:54:32;2.20;;;1.33;;
48516;SDS011;34310;51.904;4.256;2023-07-29T03:56:58;1.98;;;1.30;;
48516;SDS011;34310;51.904;4.256;2023-07-29T03:59:25;1.35;;;1.25;;
48516;SDS011;34310;51.904;4.256;2023-07-29T04:01:51;2.05;;;1.38;;
48516;SDS011;34310;51.904;4.256;2023-07-29T04:04:18;2.05;;;1.35;;
48516;SDS011;34310;51.904;4.256;2023-07-29T04:06:44;1.42;;;1.33;;
48516;SDS011;34310;51.904;4.256;2023-07-29T04:09:11;1.67;;;1.23;;
48516;SDS011;34310;51.904;4.256;2023-07-29T04:11:37;1.50;;;1.25;;
48516;SDS011;34310;51.904;4.256;2023-07-29T04:14:04;2.20;;;1.50;;
48516;SDS011;34310;51.904;4.256;2023-07-29T04:16:31;2.05;;;1.20;;
48516;SDS011;34310;51.904;4.256;2023-07-29T04:18:57;1.77;;;1.38;;
48516;SDS011;34310;51.904;4.256;2023-07-29T04:21:24;1.40;;;1.30;;
48516;SDS011;34310;51.904;4.256;2023-07-29T04:23:50;1.60;;;1.50;;
48516;SDS011;34310;51.904;4.256;2023-07-29T04:26:17;1.38;;;1.20;;
48516;SDS011;34310;51.904;4.256;2023-07-29T04:28:43;2.70;;;1.50;;
48516;SDS011;34310;51.904;4.256;2023-07-29T04:31:09;1.40;;;1.30;;
48516;SDS011;34310;51.904;4.256;2023-07-29T04:33:36;1.70;;;1.48;;
48516;SDS011;34310;51.904;4.256;2023-07-29T04:36:03;2.08;;;1.52;;
48516;SDS011;34310;51.904;4.256;2023-07-29T04:38:32;2.00;;;1.35;;
48516;SDS011;34310;51.904;4.256;2023-07-29T04:41:00;1.90;;;1.27;;
48516;SDS011;34310;51.904;4.256;2023-07-29T04:43:27;2.53;;;1.38;;
48516;SDS011;34310;51.904;4.256;2023-07-29T04:45:54;1.48;;;1.38;;
48516;SDS011;34310;51.904;4.256;2023-07-29T04:48:21;1.40;;;1.25;;
48516;SDS011;34310;51.904;4.256;2023-07-29T04:50:47;2.15;;;1.55;;
48516;SDS011;34310;51.904;4.256;2023-07-29T04:53:13;1.85;;;1.40;;
48516;SDS011;34310;51.904;4.256;2023-07-29T04:55:41;1.50;;;1.40;;
48516;SDS011;34310;51.904;4.256;2023-07-29T04:58:08;1.60;;;1.38;;
48516;SDS011;34310;51.904;4.256;2023-07-29T05:00:35;1.83;;;1.25;;
48516;SDS011;34310;51.904;4.256;2023-07-29T05:03:01;1.98;;;1.48;;
48516;SDS011;34310;51.904;4.256;2023-07-29T05:05:28;1.92;;;1.40;;
48516;SDS011;34310;51.904;4.256;2023-07-29T05:07:55;1.88;;;1.25;;
48516;SDS011;34310;51.904;4.256;2023-07-29T05:10:21;1.67;;;1.20;;
48516;SDS011;34310;51.904;4.256;2023-07-29T05:12:48;1.75;;;1.48;;
48516;SDS011;34310;51.904;4.256;2023-07-29T05:15:14;2.10;;;1.25;;
48516;SDS011;34310;51.904;4.256;2023-07-29T05:17:41;1.23;;;1.10;;
48516;SDS011;34310;51.904;4.256;2023-07-29T05:20:08;2.08;;;1.40;;
48516;SDS011;34310;51.904;4.256;2023-07-29T05:22:35;1.40;;;1.30;;
48516;SDS011;34310;51.904;4.256;2023-07-29T05:25:01;1.35;;;1.20;;
48516;SDS011;34310;51.904;4.256;2023-07-29T05:27:28;1.85;;;1.35;;
48516;SDS011;34310;51.904;4.256;2023-07-29T05:29:54;1.63;;;1.50;;
48516;SDS011;34310;51.904;4.256;2023-07-29T05:32:20;1.70;;;1.50;;
48516;SDS011;34310;51.904;4.256;2023-07-29T05:34:47;1.90;;;1.70;;
48516;SDS011;34310;51.904;4.256;2023-07-29T05:37:14;2.65;;;1.65;;
48516;SDS011;34310;51.904;4.256;2023-07-29T05:39:40;4.28;;;2.15;;
48516;SDS011;34310;51.904;4.256;2023-07-29T05:42:06;2.65;;;2.05;;
48516;SDS011;34310;51.904;4.256;2023-07-29T05:44:33;3.28;;;2.70;;
48516;SDS011;34310;51.904;4.256;2023-07-29T05:46:59;2.75;;;2.33;;
48516;SDS011;34310;51.904;4.256;2023-07-29T05:49:26;3.03;;;2.70;;
48516;SDS011;34310;51.904;4.256;2023-07-29T05:51:52;3.33;;;2.65;;
48516;SDS011;34310;51.904;4.256;2023-07-29T05:54:19;3.53;;;2.75;;
48516;SDS011;34310;51.904;4.256;2023-07-29T05:56:46;3.67;;;2.45;;
48516;SDS011;34310;51.904;4.256;2023-07-29T05:59:12;2.92;;;2.63;;
48516;SDS011;34310;51.904;4.256;2023-07-29T06:01:39;3.42;;;2.70;;
48516;SDS011;34310;51.904;4.256;2023-07-29T06:04:05;3.88;;;3.00;;
48516;SDS011;34310;51.904;4.256;2023-07-29T06:06:32;4.25;;;3.30;;
48516;SDS011;34310;51.904;4.256;2023-07-29T06:08:59;4.05;;;3.40;;
48516;SDS011;34310;51.904;4.256;2023-07-29T06:11:25;3.97;;;3.55;;
48516;SDS011;34310;51.904;4.256;2023-07-29T06:13:52;5.97;;;3.97;;
48516;SDS011;34310;51.904;4.256;2023-07-29T06:16:18;4.75;;;4.18;;
48516;SDS011;34310;51.904;4.256;2023-07-29T06:18:45;9.25;;;5.07;;
48516;SDS011;34310;51.904;4.256;2023-07-29T06:21:11;5.10;;;4.07;;
48516;SDS011;34310;51.904;4.256;2023-07-29T06:23:38;7.03;;;4.80;;
48516;SDS011;34310;51.904;4.256;2023-07-29T06:26:04;7.50;;;4.90;;
48516;SDS011;34310;51.904;4.256;2023-07-29T06:28:31;6.25;;;4.07;;
48516;SDS011;34310;51.904;4.256;2023-07-29T06:30:57;4.25;;;3.60;;
48516;SDS011;34310;51.904;4.256;2023-07-29T06:33:24;5.53;;;4.45;;
48516;SDS011;34310;51.904;4.256;2023-07-29T06:35:50;6.00;;;4.40;;
48516;SDS011;34310;51.904;4.256;2023-07-29T06:38:17;6.75;;;4.35;;
48516;SDS011;34310;51.904;4.256;2023-07-29T06:40:43;6.03;;;4.15;;
48516;SDS011;34310;51.904;4.256;2023-07-29T06:43:10;6.53;;;4.35;;
48516;SDS011;34310;51.904;4.256;2023-07-29T06:45:36;7.05;;;4.70;;
48516;SDS011;34310;51.904;4.256;2023-07-29T06:48:03;6.70;;;4.53;;
48516;SDS011;34310;51.904;4.256;2023-07-29T06:50:30;8.43;;;6.00;;
48516;SDS011;34310;51.904;4.256;2023-07-29T06:52:57;9.95;;;6.00;;
48516;SDS011;34310;51.904;4.256;2023-07-29T06:55:23;9.07;;;6.57;;
48516;SDS011;34310;51.904;4.256;2023-07-29T06:57:50;9.65;;;7.03;;
48516;SDS011;34310;51.904;4.256;2023-07-29T07:00:16;7.75;;;5.70;;
48516;SDS011;34310;51.904;4.256;2023-07-29T07:02:43;9.27;;;7.10;;
48516;SDS011;34310;51.904;4.256;2023-07-29T07:05:09;9.27;;;6.22;;
48516;SDS011;34310;51.904;4.256;2023-07-29T07:07:36;10.13;;;6.22;;
48516;SDS011;34310;51.904;4.256;2023-07-29T07:10:02;8.55;;;6.65;;
48516;SDS011;34310;51.904;4.256;2023-07-29T07:12:29;8.82;;;7.03;;
48516;SDS011;34310;51.904;4.256;2023-07-29T07:14:56;9.82;;;7.50;;
48516;SDS011;34310;51.904;4.256;2023-07-29T07:17:22;10.88;;;8.95;;
48516;SDS011;34310;51.904;4.256;2023-07-29T07:19:49;13.75;;;9.38;;
48516;SDS011;34310;51.904;4.256;2023-07-29T07:22:15;13.20;;;9.05;;
48516;SDS011;34310;51.904;4.256;2023-07-29T07:24:42;10.07;;;8.45;;
48516;SDS011;34310;51.904;4.256;2023-07-29T07:27:08;9.95;;;8.13;;
48516;SDS011;34310;51.904;4.256;2023-07-29T07:29:35;10.18;;;8.15;;
48516;SDS011;34310;51.904;4.256;2023-07-29T07:32:01;11.40;;;8.65;;
48516;SDS011;34310;51.904;4.256;2023-07-29T07:34:28;9.95;;;7.72;;
48516;SDS011;34310;51.904;4.256;2023-07-29T07:36:55;10.32;;;7.65;;
48516;SDS011;34310;51.904;4.256;2023-07-29T07:39:21;10.43;;;7.55;;
48516;SDS011;34310;51.904;4.256;2023-07-29T07:41:48;9.55;;;7.20;;
48516;SDS011;34310;51.904;4.256;2023-07-29T07:44:14;11.57;;;7.63;;
48516;SDS011;34310;51.904;4.256;2023-07-29T07:46:41;9.70;;;7.43;;
48516;SDS011;34310;51.904;4.256;2023-07-29T07:49:08;8.18;;;6.57;;
48516;SDS011;34310;51.904;4.256;2023-07-29T07:51:34;8.75;;;6.65;;
48516;SDS011;34310;51.904;4.256;2023-07-29T07:54:00;9.27;;;7.22;;
48516;SDS011;34310;51.904;4.256;2023-07-29T07:56:27;9.02;;;7.20;;
48516;SDS011;34310;51.904;4.256;2023-07-29T07:58:53;8.75;;;6.40;;
48516;SDS011;34310;51.904;4.256;2023-07-29T08:01:20;10.82;;;6.95;;
48516;SDS011;34310;51.904;4.256;2023-07-29T08:03:46;9.00;;;6.78;;
48516;SDS011;34310;51.904;4.256;2023-07-29T08:06:13;8.93;;;7.10;;
48516;SDS011;34310;51.904;4.256;2023-07-29T08:08:39;8.98;;;7.45;;
48516;SDS011;34310;51.904;4.256;2023-07-29T08:11:06;9.85;;;7.65;;
48516;SDS011;34310;51.904;4.256;2023-07-29T08:13:32;10.75;;;8.23;;
48516;SDS011;34310;51.904;4.256;2023-07-29T08:15:59;11.80;;;9.02;;
48516;SDS011;34310;51.904;4.256;2023-07-29T08:18:25;11.82;;;8.75;;
48516;SDS011;34310;51.904;4.256;2023-07-29T08:20:52;12.15;;;9.52;;
48516;SDS011;34310;51.904;4.256;2023-07-29T08:23:26;11.75;;;9.45;;
48516;SDS011;34310;51.904;4.256;2023-07-29T08:25:53;13.32;;;10.05;;
48516;SDS011;34310;51.904;4.256;2023-07-29T08:28:20;13.80;;;10.70;;
48516;SDS011;34310;51.904;4.256;2023-07-29T08:30:47;14.23;;;10.55;;
48516;SDS011;34310;51.904;4.256;2023-07-29T08:33:14;13.52;;;11.15;;
48516;SDS011;34310;51.904;4.256;2023-07-29T08:35:41;14.15;;;11.43;;
48516;SDS011;34310;51.904;4.256;2023-07-29T08:38:07;12.32;;;10.20;;
48516;SDS011;34310;51.904;4.256;2023-07-29T08:40:34;13.48;;;10.90;;
48516;SDS011;34310;51.904;4.256;2023-07-29T08:43:04;12.50;;;10.05;;
48516;SDS011;34310;51.904;4.256;2023-07-29T08:45:34;11.45;;;9.65;;
48516;SDS011;34310;51.904;4.256;2023-07-29T08:48:02;12.38;;;10.48;;
48516;SDS011;34310;51.904;4.256;2023-07-29T08:50:33;11.48;;;9.75;;
48516;SDS011;34310;51.904;4.256;2023-07-29T08:53:05;12.05;;;9.93;;
48516;SDS011;34310;51.904;4.256;2023-07-29T08:55:32;11.77;;;10.52;;
48516;SDS011;34310;51.904;4.256;2023-07-29T08:57:59;12.85;;;11.02;;
48516;SDS011;34310;51.904;4.256;2023-07-29T09:00:26;12.88;;;11.20;;
48516;SDS011;34310;51.904;4.256;2023-07-29T09:02:53;12.80;;;11.40;;
48516;SDS011;34310;51.904;4.256;2023-07-29T09:05:21;13.32;;;11.35;;
48516;SDS011;34310;51.904;4.256;2023-07-29T09:07:48;13.68;;;11.32;;
48516;SDS011;34310;51.904;4.256;2023-07-29T09:10:21;14.15;;;11.73;;
48516;SDS011;34310;51.904;4.256;2023-07-29T09:12:48;13.57;;;11.68;;
48516;SDS011;34310;51.904;4.256;2023-07-29T09:15:26;14.50;;;11.60;;
48516;SDS011;34310;51.904;4.256;2023-07-29T09:17:54;13.45;;;11.40;;
48516;SDS011;34310;51.904;4.256;2023-07-29T09:20:26;12.90;;;10.73;;
48516;SDS011;34310;51.904;4.256;2023-07-29T09:22:54;13.85;;;11.18;;
48516;SDS011;34310;51.904;4.256;2023-07-29T09:25:24;11.63;;;10.20;;
48516;SDS011;34310;51.904;4.256;2023-07-29T09:27:59;12.32;;;10.10;;
48516;SDS011;34310;51.904;4.256;2023-07-29T09:30:27;12.25;;;9.30;;
48516;SDS011;34310;51.904;4.256;2023-07-29T09:32:57;11.32;;;9.80;;
48516;SDS011;34310;51.904;4.256;2023-07-29T09:35:26;11.05;;;9.88;;
48516;SDS011;34310;51.904;4.256;2023-07-29T09:37:54;11.20;;;9.65;;
48516;SDS011;34310;51.904;4.256;2023-07-29T09:40:20;12.35;;;9.75;;
48516;SDS011;34310;51.904;4.256;2023-07-29T09:42:53;11.20;;;9.60;;
48516;SDS011;34310;51.904;4.256;2023-07-29T09:45:24;12.23;;;9.40;;
48516;SDS011;34310;51.904;4.256;2023-07-29T09:47:53;9.68;;;8.55;;
48516;SDS011;34310;51.904;4.256;2023-07-29T09:50:25;9.40;;;8.15;;
48516;SDS011;34310;51.904;4.256;2023-07-29T09:52:53;10.55;;;9.00;;
48516;SDS011;34310;51.904;4.256;2023-07-29T09:55:21;9.75;;;8.27;;
48516;SDS011;34310;51.904;4.256;2023-07-29T09:57:59;10.25;;;8.63;;
48516;SDS011;34310;51.904;4.256;2023-07-29T10:00:27;10.27;;;9.00;;
48516;SDS011;34310;51.904;4.256;2023-07-29T10:02:54;10.65;;;8.82;;
48516;SDS011;34310;51.904;4.256;2023-07-29T10:05:22;11.35;;;8.95;;
48516;SDS011;34310;51.904;4.256;2023-07-29T10:07:49;10.43;;;8.65;;
48516;SDS011;34310;51.904;4.256;2023-07-29T10:10:16;9.88;;;8.32;;
48516;SDS011;34310;51.904;4.256;2023-07-29T10:12:43;9.85;;;8.50;;
48516;SDS011;34310;51.904;4.256;2023-07-29T10:15:10;8.68;;;7.57;;
48516;SDS011;34310;51.904;4.256;2023-07-29T10:17:37;9.80;;;8.00;;
48516;SDS011;34310;51.904;4.256;2023-07-29T10:20:08;9.55;;;8.23;;
48516;SDS011;34310;51.904;4.256;2023-07-29T10:22:37;9.45;;;8.45;;
48516;SDS011;34310;51.904;4.256;2023-07-29T10:25:19;9.98;;;7.70;;
48516;SDS011;34310;51.904;4.256;2023-07-29T10:28:04;9.63;;;7.80;;
48516;SDS011;34310;51.904;4.256;2023-07-29T10:30:32;8.90;;;7.47;;
48516;SDS011;34310;51.904;4.256;2023-07-29T10:32:59;8.95;;;7.95;;
48516;SDS011;34310;51.904;4.256;2023-07-29T10:35:28;8.95;;;8.05;;
48516;SDS011;34310;51.904;4.256;2023-07-29T10:37:55;11.13;;;8.63;;
48516;SDS011;34310;51.904;4.256;2023-07-29T10:40:22;8.85;;;7.95;;
48516;SDS011;34310;51.904;4.256;2023-07-29T10:45:38;8.77;;;7.80;;
48516;SDS011;34310;51.904;4.256;2023-07-29T10:51:22;9.23;;;8.00;;
48516;SDS011;34310;51.904;4.256;2023-07-29T10:54:19;8.82;;;7.53;;
48516;SDS011;34310;51.904;4.256;2023-07-29T10:56:49;8.68;;;7.78;;
48516;SDS011;34310;51.904;4.256;2023-07-29T11:02:06;9.55;;;8.40;;
48516;SDS011;34310;51.904;4.256;2023-07-29T11:04:46;9.60;;;8.40;;
48516;SDS011;34310;51.904;4.256;2023-07-29T11:09:40;9.55;;;8.38;;
48516;SDS011;34310;51.904;4.256;2023-07-29T11:15:12;10.38;;;9.02;;
48516;SDS011;34310;51.904;4.256;2023-07-29T11:18:02;11.20;;;9.15;;
48516;SDS011;34310;51.904;4.256;2023-07-29T11:20:28;9.73;;;8.50;;
48516;SDS011;34310;51.904;4.256;2023-07-29T11:23:00;9.90;;;8.88;;
48516;SDS011;34310;51.904;4.256;2023-07-29T11:25:28;10.95;;;9.23;;
48516;SDS011;34310;51.904;4.256;2023-07-29T11:27:57;9.90;;;8.70;;
48516;SDS011;34310;51.904;4.256;2023-07-29T11:30:25;10.18;;;9.05;;
48516;SDS011;34310;51.904;4.256;2023-07-29T11:32:52;11.90;;;9.25;;
48516;SDS011;34310;51.904;4.256;2023-07-29T11:35:19;11.27;;;8.70;;
48516;SDS011;34310;51.904;4.256;2023-07-29T11:37:47;10.38;;;8.98;;
48516;SDS011;34310;51.904;4.256;2023-07-29T11:40:19;10.55;;;8.88;;
48516;SDS011;34310;51.904;4.256;2023-07-29T11:42:47;9.80;;;8.77;;
48516;SDS011;34310;51.904;4.256;2023-07-29T11:45:14;11.00;;;9.23;;
48516;SDS011;34310;51.904;4.256;2023-07-29T11:47:44;11.25;;;9.40;;
48516;SDS011;34310;51.904;4.256;2023-07-29T11:50:12;11.35;;;9.43;;
48516;SDS011;34310;51.904;4.256;2023-07-29T11:52:40;10.60;;;9.20;;
48516;SDS011;34310;51.904;4.256;2023-07-29T11:55:08;10.93;;;9.30;;
48516;SDS011;34310;51.904;4.256;2023-07-29T11:57:36;9.10;;;8.18;;
48516;SDS011;34310;51.904;4.256;2023-07-29T12:00:04;10.00;;;8.63;;
48516;SDS011;34310;51.904;4.256;2023-07-29T12:02:32;9.88;;;8.88;;
48516;SDS011;34310;51.904;4.256;2023-07-29T12:05:03;10.32;;;8.63;;
48516;SDS011;34310;51.904;4.256;2023-07-29T12:07:34;8.63;;;7.47;;
48516;SDS011;34310;51.904;4.256;2023-07-29T12:10:02;8.82;;;7.53;;
48516;SDS011;34310;51.904;4.256;2023-07-29T12:12:29;9.73;;;8.35;;
48516;SDS011;34310;51.904;4.256;2023-07-29T12:14:56;8.52;;;7.30;;
48516;SDS011;34310;51.904;4.256;2023-07-29T12:17:22;9.10;;;7.60;;
48516;SDS011;34310;51.904;4.256;2023-07-29T12:19:49;9.23;;;7.93;;
48516;SDS011;34310;51.904;4.256;2023-07-29T12:22:19;9.23;;;7.63;;
48516;SDS011;34310;51.904;4.256;2023-07-29T12:24:46;8.30;;;6.95;;
48516;SDS011;34310;51.904;4.256;2023-07-29T12:27:13;8.20;;;6.78;;
48516;SDS011;34310;51.904;4.256;2023-07-29T12:29:41;7.53;;;6.72;;
48516;SDS011;34310;51.904;4.256;2023-07-29T12:32:09;7.43;;;6.50;;
48516;SDS011;34310;51.904;4.256;2023-07-29T12:34:37;7.45;;;6.65;;
48516;SDS011;34310;51.904;4.256;2023-07-29T12:37:05;7.07;;;6.05;;
48516;SDS011;34310;51.904;4.256;2023-07-29T12:39:32;7.97;;;6.85;;
48516;SDS011;34310;51.904;4.256;2023-07-29T12:42:01;7.53;;;6.55;;
48516;SDS011;34310;51.904;4.256;2023-07-29T12:44:32;7.10;;;6.40;;
48516;SDS011;34310;51.904;4.256;2023-07-29T12:47:00;7.57;;;6.47;;
48516;SDS011;34310;51.904;4.256;2023-07-29T12:49:28;7.18;;;6.40;;
48516;SDS011;34310;51.904;4.256;2023-07-29T12:51:58;6.90;;;6.07;;
48516;SDS011;34310;51.904;4.256;2023-07-29T12:54:25;8.48;;;6.25;;
48516;SDS011;34310;51.904;4.256;2023-07-29T12:56:52;8.27;;;6.40;;
48516;SDS011;34310;51.904;4.256;2023-07-29T12:59:19;7.20;;;6.28;;
48516;SDS011;34310;51.904;4.256;2023-07-29T13:01:45;7.72;;;6.90;;
48516;SDS011;34310;51.904;4.256;2023-07-29T13:04:11;7.22;;;6.32;;
48516;SDS011;34310;51.904;4.256;2023-07-29T13:06:38;6.88;;;6.18;;
48516;SDS011;34310;51.904;4.256;2023-07-29T13:09:05;7.93;;;6.15;;
48516;SDS011;34310;51.904;4.256;2023-07-29T13:11:32;6.63;;;5.97;;
48516;SDS011;34310;51.904;4.256;2023-07-29T13:13:59;6.97;;;6.28;;
48516;SDS011;34310;51.904;4.256;2023-07-29T13:16:25;7.40;;;6.60;;
48516;SDS011;34310;51.904;4.256;2023-07-29T13:18:52;7.78;;;6.97;;
48516;SDS011;34310;51.904;4.256;2023-07-29T13:21:19;7.38;;;6.57;;
48516;SDS011;34310;51.904;4.256;2023-07-29T13:23:45;8.25;;;6.32;;
48516;SDS011;34310;51.904;4.256;2023-07-29T13:26:12;7.55;;;6.72;;
48516;SDS011;34310;51.904;4.256;2023-07-29T13:28:38;7.40;;;6.60;;
48516;SDS011;34310;51.904;4.256;2023-07-29T13:31:05;7.38;;;6.63;;
48516;SDS011;34310;51.904;4.256;2023-07-29T13:33:31;7.55;;;6.68;;
48516;SDS011;34310;51.904;4.256;2023-07-29T13:35:57;8.65;;;6.80;;
48516;SDS011;34310;51.904;4.256;2023-07-29T13:38:24;8.65;;;7.40;;
48516;SDS011;34310;51.904;4.256;2023-07-29T13:40:50;8.57;;;7.68;;
48516;SDS011;34310;51.904;4.256;2023-07-29T13:43:17;9.52;;;8.10;;
48516;SDS011;34310;51.904;4.256;2023-07-29T13:45:43;9.27;;;8.32;;
48516;SDS011;34310;51.904;4.256;2023-07-29T13:48:10;9.60;;;8.60;;
48516;SDS011;34310;51.904;4.256;2023-07-29T13:50:37;9.63;;;8.27;;
48516;SDS011;34310;51.904;4.256;2023-07-29T13:53:03;10.15;;;9.05;;
48516;SDS011;34310;51.904;4.256;2023-07-29T13:55:30;11.07;;;9.25;;
48516;SDS011;34310;51.904;4.256;2023-07-29T13:57:56;9.73;;;8.50;;
48516;SDS011;34310;51.904;4.256;2023-07-29T14:00:23;11.35;;;9.45;;
48516;SDS011;34310;51.904;4.256;2023-07-29T14:02:49;12.15;;;10.02;;
48516;SDS011;34310;51.904;4.256;2023-07-29T14:05:17;11.07;;;9.63;;
48516;SDS011;34310;51.904;4.256;2023-07-29T14:07:43;11.02;;;9.75;;
48516;SDS011;34310;51.904;4.256;2023-07-29T14:10:10;11.52;;;10.15;;
48516;SDS011;34310;51.904;4.256;2023-07-29T14:12:36;12.45;;;10.43;;
48516;SDS011;34310;51.904;4.256;2023-07-29T14:15:03;12.45;;;10.88;;
48516;SDS011;34310;51.904;4.256;2023-07-29T14:17:31;11.73;;;10.20;;
48516;SDS011;34310;51.904;4.256;2023-07-29T14:19:57;11.85;;;10.38;;
48516;SDS011;34310;51.904;4.256;2023-07-29T14:22:24;12.38;;;11.07;;
48516;SDS011;34310;51.904;4.256;2023-07-29T14:24:50;11.88;;;10.57;;
48516;SDS011;34310;51.904;4.256;2023-07-29T14:27:17;11.85;;;10.57;;
48516;SDS011;34310;51.904;4.256;2023-07-29T14:29:43;12.00;;;10.70;;
48516;SDS011;34310;51.904;4.256;2023-07-29T14:32:10;11.88;;;10.45;;
48516;SDS011;34310;51.904;4.256;2023-07-29T14:34:36;12.30;;;10.23;;
48516;SDS011;34310;51.904;4.256;2023-07-29T14:37:03;12.40;;;10.38;;
48516;SDS011;34310;51.904;4.256;2023-07-29T14:39:29;11.45;;;10.25;;
48516;SDS011;34310;51.904;4.256;2023-07-29T14:41:56;12.05;;;10.63;;
48516;SDS011;34310;51.904;4.256;2023-07-29T14:44:22;12.10;;;10.80;;
48516;SDS011;34310;51.904;4.256;2023-07-29T14:46:49;13.57;;;11.23;;
48516;SDS011;34310;51.904;4.256;2023-07-29T14:49:15;11.90;;;10.60;;
48516;SDS011;34310;51.904;4.256;2023-07-29T14:51:42;11.02;;;9.70;;
48516;SDS011;34310;51.904;4.256;2023-07-29T14:54:08;11.55;;;10.15;;
48516;SDS011;34310;51.904;4.256;2023-07-29T14:56:35;11.70;;;10.02;;
48516;SDS011;34310;51.904;4.256;2023-07-29T14:59:02;10.93;;;9.20;;
48516;SDS011;34310;51.904;4.256;2023-07-29T15:01:28;10.85;;;9.63;;
48516;SDS011;34310;51.904;4.256;2023-07-29T15:03:55;10.60;;;9.48;;